sensor_id;sensor_type;location;lat;lon;timestamp;pressure;altitude;pressure_sealevel;temperature;humidity
85159;BME280;75525;50.718;10.600;2024-01-25T00:00:32;96609.22;;;5.27;74.31
85159;BME280;75525;50.718;10.600;2024-01-25T00:01:33;96620.16;;;5.32;73.40
85159;BME280;75525;50.718;10.600;2024-01-25T00:02:33;96596.59;;;5.34;74.03
85159;BME280;75525;50.718;10.600;2024-01-25T00:03:35;96588.34;;;5.29;74.65
85159;BME280;75525;50.718;10.600;2024-01-25T00:04:35;96597.03;;;5.31;73.95
85159;BME280;75525;50.718;10.600;2024-01-25T00:05:36;96579.69;;;5.20;74.67
85159;BME280;75525;50.718;10.600;2024-01-25T00:06:38;96590.44;;;5.27;74.45
85159;BME280;75525;50.718;10.600;2024-01-25T00:07:50;96580.53;;;5.20;74.92
85159;BME280;75525;50.718;10.600;2024-01-25T00:08:51;96573.09;;;5.16;75.15
85159;BME280;75525;50.718;10.600;2024-01-25T00:09:51;96590.44;;;5.27;74.58
85159;BME280;75525;50.718;10.600;2024-01-25T00:10:52;96597.44;;;5.28;74.35
85159;BME280;75525;50.718;10.600;2024-01-25T00:11:52;96604.88;;;5.26;75.02
85159;BME280;75525;50.718;10.600;2024-01-25T00:12:53;96587.53;;;5.21;74.82
85159;BME280;75525;50.718;10.600;2024-01-25T00:13:53;96593.94;;;5.20;75.30
85159;BME280;75525;50.718;10.600;2024-01-25T00:14:53;96583.41;;;5.26;75.64
85159;BME280;75525;50.718;10.600;2024-01-25T00:15:54;96583.84;;;5.23;75.27
85159;BME280;75525;50.718;10.600;2024-01-25T00:16:55;96582.78;;;5.17;75.31
85159;BME280;75525;50.718;10.600;2024-01-25T00:17:55;96579.91;;;5.18;75.03
85159;BME280;75525;50.718;10.600;2024-01-25T00:18:57;96604.88;;;5.26;75.17
85159;BME280;75525;50.718;10.600;2024-01-25T00:19:57;96600.31;;;5.26;75.83
85159;BME280;75525;50.718;10.600;2024-01-25T00:20:58;96598.69;;;5.25;75.03
85159;BME280;75525;50.718;10.600;2024-01-25T00:21:58;96590.44;;;5.20;75.35
85159;BME280;75525;50.718;10.600;2024-01-25T00:22:59;96577.63;;;5.22;74.89
85159;BME280;75525;50.718;10.600;2024-01-25T00:23:59;96587.53;;;5.21;75.23
85159;BME280;75525;50.718;10.600;2024-01-25T00:25:00;96587.34;;;5.16;75.70
85159;BME280;75525;50.718;10.600;2024-01-25T00:26:00;96587.16;;;5.11;75.46
85159;BME280;75525;50.718;10.600;2024-01-25T00:27:01;96573.28;;;5.14;75.43
85159;BME280;75525;50.718;10.600;2024-01-25T00:28:03;96591.25;;;5.20;75.47
85159;BME280;75525;50.718;10.600;2024-01-25T00:29:04;96576.38;;;5.25;75.56
85159;BME280;75525;50.718;10.600;2024-01-25T00:30:05;96592.06;;;5.28;75.23
85159;BME280;75525;50.718;10.600;2024-01-25T00:31:06;96558.66;;;5.17;75.02
85159;BME280;75525;50.718;10.600;2024-01-25T00:32:07;96577.19;;;5.25;75.70
85159;BME280;75525;50.718;10.600;2024-01-25T00:33:07;96581.75;;;5.25;75.09
85159;BME280;75525;50.718;10.600;2024-01-25T00:34:08;96590.22;;;5.35;74.50
85159;BME280;75525;50.718;10.600;2024-01-25T00:35:09;96596.19;;;5.37;74.52
85159;BME280;75525;50.718;10.600;2024-01-25T00:36:11;96586.72;;;5.28;74.68
85159;BME280;75525;50.718;10.600;2024-01-25T00:37:12;96591.84;;;5.36;75.45
85159;BME280;75525;50.718;10.600;2024-01-25T00:38:12;96575.56;;;5.31;75.26
85159;BME280;75525;50.718;10.600;2024-01-25T00:39:13;96586.91;;;5.33;74.90
85159;BME280;75525;50.718;10.600;2024-01-25T00:40:14;96601.13;;;5.33;74.76
85159;BME280;75525;50.718;10.600;2024-01-25T00:41:18;96593.91;;;5.34;75.22
85159;BME280;75525;50.718;10.600;2024-01-25T00:42:22;96598.25;;;5.35;74.79
85159;BME280;75525;50.718;10.600;2024-01-25T00:43:24;96590.81;;;5.30;75.04
85159;BME280;75525;50.718;10.600;2024-01-25T00:44:25;96601.13;;;5.33;74.72
85159;BME280;75525;50.718;10.600;2024-01-25T00:45:26;96595.56;;;5.35;75.13
85159;BME280;75525;50.718;10.600;2024-01-25T00:46:26;96594.94;;;5.33;74.94
85159;BME280;75525;50.718;10.600;2024-01-25T00:47:27;96594.94;;;5.33;74.74
85159;BME280;75525;50.718;10.600;2024-01-25T00:48:28;96581.34;;;5.21;75.10
85159;BME280;75525;50.718;10.600;2024-01-25T00:49:29;96577.44;;;5.10;75.20
85159;BME280;75525;50.718;10.600;2024-01-25T00:50:30;96602.59;;;5.29;75.38
85159;BME280;75525;50.718;10.600;2024-01-25T00:51:30;96581.34;;;5.28;75.38
85159;BME280;75525;50.718;10.600;2024-01-25T00:52:31;96591.88;;;5.23;74.79
85159;BME280;75525;50.718;10.600;2024-01-25T00:53:32;96603.22;;;5.31;74.18
85159;BME280;75525;50.718;10.600;2024-01-25T00:54:33;96600.72;;;5.30;74.80
85159;BME280;75525;50.718;10.600;2024-01-25T00:55:34;96581.34;;;5.14;74.90
85159;BME280;75525;50.718;10.600;2024-01-25T00:56:34;96595.41;;;5.23;75.50
85159;BME280;75525;50.718;10.600;2024-01-25T00:57:35;96609.41;;;5.25;75.57
85159;BME280;75525;50.718;10.600;2024-01-25T00:58:36;96599.13;;;5.15;75.35
85159;BME280;75525;50.718;10.600;2024-01-25T00:59:36;96590.84;;;5.10;74.87
85159;BME280;75525;50.718;10.600;2024-01-25T01:00:37;96580.13;;;5.10;75.87
85159;BME280;75525;50.718;10.600;2024-01-25T01:01:38;96594.56;;;5.09;75.95
85159;BME280;75525;50.718;10.600;2024-01-25T01:02:42;96580.97;;;5.04;75.93
85159;BME280;75525;50.718;10.600;2024-01-25T01:03:43;96599.13;;;5.09;75.87
85159;BME280;75525;50.718;10.600;2024-01-25T01:04:44;96600.78;;;5.03;76.23
85159;BME280;75525;50.718;10.600;2024-01-25T01:05:45;96589.66;;;4.93;76.24
85159;BME280;75525;50.718;10.600;2024-01-25T01:06:46;96583.28;;;4.87;76.08
85159;BME280;75525;50.718;10.600;2024-01-25T01:07:48;96587.19;;;4.91;75.88
85159;BME280;75525;50.718;10.600;2024-01-25T01:08:49;96585.09;;;4.93;76.67
85159;BME280;75525;50.718;10.600;2024-01-25T01:09:49;96572.34;;;4.69;76.78
85159;BME280;75525;50.718;10.600;2024-01-25T01:10:50;96600.59;;;4.85;76.71
85159;BME280;75525;50.718;10.600;2024-01-25T01:11:50;96592.75;;;4.83;76.79
85159;BME280;75525;50.718;10.600;2024-01-25T01:12:52;96590.72;;;4.79;76.58
85159;BME280;75525;50.718;10.600;2024-01-25T01:13:54;96613.41;;;4.83;76.73
85159;BME280;75525;50.718;10.600;2024-01-25T01:14:54;96609.03;;;4.82;76.63
85159;BME280;75525;50.718;10.600;2024-01-25T01:15:55;96611.94;;;4.80;76.73
85159;BME280;75525;50.718;10.600;2024-01-25T01:16:55;96599.56;;;4.72;76.97
85159;BME280;75525;50.718;10.600;2024-01-25T01:17:56;96605.16;;;4.71;76.80
85159;BME280;75525;50.718;10.600;2024-01-25T01:18:56;96616.69;;;4.71;76.54
85159;BME280;75525;50.718;10.600;2024-01-25T01:19:56;96612.38;;;4.70;77.29
85159;BME280;75525;50.718;10.600;2024-01-25T01:20:57;96602.47;;;4.71;76.91
85159;BME280;75525;50.718;10.600;2024-01-25T01:21:57;96611.56;;;4.70;77.20
85159;BME280;75525;50.718;10.600;2024-01-25T01:22:58;96616.06;;;4.69;76.58
85159;BME280;75525;50.718;10.600;2024-01-25T01:23:58;96609.25;;;4.60;76.91
85159;BME280;75525;50.718;10.600;2024-01-25T01:24:59;96624.72;;;4.65;76.63
85159;BME280;75525;50.718;10.600;2024-01-25T01:26:00;96622.88;;;4.65;77.00
85159;BME280;75525;50.718;10.600;2024-01-25T01:27:01;96616.50;;;4.66;76.74
85159;BME280;75525;50.718;10.600;2024-01-25T01:28:01;96614.41;;;4.55;77.81
85159;BME280;75525;50.718;10.600;2024-01-25T01:29:02;96616.91;;;4.63;77.36
85159;BME280;75525;50.718;10.600;2024-01-25T01:30:03;96619.81;;;4.62;77.24
85159;BME280;75525;50.718;10.600;2024-01-25T01:31:03;96607.81;;;4.51;77.93
85159;BME280;75525;50.718;10.600;2024-01-25T01:32:04;96604.50;;;4.49;77.19
85159;BME280;75525;50.718;10.600;2024-01-25T01:33:05;96623.91;;;4.51;78.01
85159;BME280;75525;50.718;10.600;2024-01-25T01:34:05;96618.53;;;4.51;77.42
85159;BME280;75525;50.718;10.600;2024-01-25T01:35:06;96609.44;;;4.45;77.88
85159;BME280;75525;50.718;10.600;2024-01-25T01:36:06;96599.97;;;4.43;77.65
85159;BME280;75525;50.718;10.600;2024-01-25T01:37:07;96615.44;;;4.47;78.08
85159;BME280;75525;50.718;10.600;2024-01-25T01:38:07;96606.75;;;4.45;78.00
85159;BME280;75525;50.718;10.600;2024-01-25T01:39:08;96605.53;;;4.48;78.09
85159;BME280;75525;50.718;10.600;2024-01-25T01:40:09;96606.78;;;4.52;77.65
85159;BME280;75525;50.718;10.600;2024-01-25T01:41:10;96609.47;;;4.52;78.07
85159;BME280;75525;50.718;10.600;2024-01-25T01:42:14;96608.22;;;4.48;77.39
85159;BME280;75525;50.718;10.600;2024-01-25T01:43:18;96595.44;;;4.43;78.06
85159;BME280;75525;50.718;10.600;2024-01-25T01:44:19;96608.84;;;4.50;77.55
85159;BME280;75525;50.718;10.600;2024-01-25T01:45:20;96618.56;;;4.58;77.54
85159;BME280;75525;50.718;10.600;2024-01-25T01:46:35;96627.00;;;4.61;77.11
85159;BME280;75525;50.718;10.600;2024-01-25T01:47:37;96622.66;;;4.60;77.13
85159;BME280;75525;50.718;10.600;2024-01-25T01:48:40;96609.88;;;4.49;77.59
85159;BME280;75525;50.718;10.600;2024-01-25T01:49:42;96616.91;;;4.50;78.24
85159;BME280;75525;50.718;10.600;2024-01-25T01:50:43;96617.91;;;4.49;77.52
85159;BME280;75525;50.718;10.600;2024-01-25T01:51:44;96599.56;;;4.46;77.37
85159;BME280;75525;50.718;10.600;2024-01-25T01:52:46;96601.81;;;4.49;78.01
85159;BME280;75525;50.718;10.600;2024-01-25T01:53:47;96627.19;;;4.53;77.57
85159;BME280;75525;50.718;10.600;2024-01-25T01:54:47;96620.81;;;4.54;78.02
85159;BME280;75525;50.718;10.600;2024-01-25T01:55:48;96609.25;;;4.47;77.98
85159;BME280;75525;50.718;10.600;2024-01-25T01:56:49;96617.09;;;4.55;78.05
85159;BME280;75525;50.718;10.600;2024-01-25T01:57:49;96618.75;;;4.56;78.07
85159;BME280;75525;50.718;10.600;2024-01-25T01:58:51;96607.41;;;4.47;77.74
85159;BME280;75525;50.718;10.600;2024-01-25T01:59:52;96622.06;;;4.58;77.04
85159;BME280;75525;50.718;10.600;2024-01-25T02:00:54;96621.25;;;4.58;77.34
85159;BME280;75525;50.718;10.600;2024-01-25T02:01:55;96597.50;;;4.48;77.83
85159;BME280;75525;50.718;10.600;2024-01-25T02:02:55;96611.94;;;4.60;77.11
85159;BME280;75525;50.718;10.600;2024-01-25T02:03:58;96612.34;;;4.57;77.96
85159;BME280;75525;50.718;10.600;2024-01-25T02:04:58;96605.31;;;4.50;78.68
85159;BME280;75525;50.718;10.600;2024-01-25T02:06:00;96617.09;;;4.55;77.80
85159;BME280;75525;50.718;10.600;2024-01-25T02:07:02;96612.78;;;4.54;77.73
85159;BME280;75525;50.718;10.600;2024-01-25T02:08:04;96598.94;;;4.44;78.25
85159;BME280;75525;50.718;10.600;2024-01-25T02:09:06;96592.97;;;4.42;78.21
85159;BME280;75525;50.718;10.600;2024-01-25T02:10:07;96595.41;;;4.37;78.08
85159;BME280;75525;50.718;10.600;2024-01-25T02:11:11;96583.88;;;4.30;78.70
85159;BME280;75525;50.718;10.600;2024-01-25T02:12:15;96610.28;;;4.39;78.88
85159;BME280;75525;50.718;10.600;2024-01-25T02:13:17;96602.00;;;4.28;79.33
85159;BME280;75525;50.718;10.600;2024-01-25T02:14:17;96582.22;;;4.22;78.59
85159;BME280;75525;50.718;10.600;2024-01-25T02:15:18;96600.56;;;4.32;79.08
85159;BME280;75525;50.718;10.600;2024-01-25T02:16:19;96607.19;;;4.36;78.73
85159;BME280;75525;50.718;10.600;2024-01-25T02:17:20;96603.25;;;4.32;78.59
85159;BME280;75525;50.718;10.600;2024-01-25T02:18:20;96598.09;;;4.30;79.27
85159;BME280;75525;50.718;10.600;2024-01-25T02:19:21;96585.09;;;4.20;78.71
85159;BME280;75525;50.718;10.600;2024-01-25T02:20:21;96596.88;;;4.26;79.57
85159;BME280;75525;50.718;10.600;2024-01-25T02:21:22;96595.63;;;4.22;79.21
85159;BME280;75525;50.718;10.600;2024-01-25T02:22:22;96606.94;;;4.17;79.43
85159;BME280;75525;50.718;10.600;2024-01-25T02:23:23;96595.56;;;4.09;79.16
85159;BME280;75525;50.718;10.600;2024-01-25T02:24:23;96598.25;;;4.02;79.10
85159;BME280;75525;50.718;10.600;2024-01-25T02:25:24;96600.09;;;4.08;79.57
85159;BME280;75525;50.718;10.600;2024-01-25T02:26:24;96603.81;;;4.07;80.31
85159;BME280;75525;50.718;10.600;2024-01-25T02:27:25;96614.16;;;4.10;80.41
85159;BME280;75525;50.718;10.600;2024-01-25T02:28:25;96609.81;;;4.09;79.89
85159;BME280;75525;50.718;10.600;2024-01-25T02:29:26;96608.16;;;4.08;80.43
85159;BME280;75525;50.718;10.600;2024-01-25T02:30:26;96587.34;;;3.97;80.32
85159;BME280;75525;50.718;10.600;2024-01-25T02:31:27;96604.44;;;4.03;80.59
85159;BME280;75525;50.718;10.600;2024-01-25T02:32:28;96603.63;;;4.02;80.18
85159;BME280;75525;50.718;10.600;2024-01-25T02:33:29;96608.53;;;3.99;81.36
85159;BME280;75525;50.718;10.600;2024-01-25T02:34:29;96602.56;;;3.90;80.93
85159;BME280;75525;50.718;10.600;2024-01-25T02:35:30;96611.84;;;3.94;80.98
85159;BME280;75525;50.718;10.600;2024-01-25T02:36:30;96611.84;;;3.94;80.90
85159;BME280;75525;50.718;10.600;2024-01-25T02:37:30;96618.44;;;3.98;81.62
85159;BME280;75525;50.718;10.600;2024-01-25T02:38:31;96608.94;;;3.95;80.51
85159;BME280;75525;50.718;10.600;2024-01-25T02:39:31;96619.88;;;4.01;80.67
85159;BME280;75525;50.718;10.600;2024-01-25T02:40:32;96601.94;;;3.94;81.11
85159;BME280;75525;50.718;10.600;2024-01-25T02:41:32;96611.22;;;3.99;80.89
85159;BME280;75525;50.718;10.600;2024-01-25T02:42:33;96615.38;;;4.08;81.13
85159;BME280;75525;50.718;10.600;2024-01-25T02:43:33;96602.59;;;4.03;80.98
85159;BME280;75525;50.718;10.600;2024-01-25T02:44:33;96600.28;;;4.00;81.12
85159;BME280;75525;50.718;10.600;2024-01-25T02:45:34;96604.47;;;4.09;81.00
85159;BME280;75525;50.718;10.600;2024-01-25T02:46:34;96592.50;;;4.05;81.00
85159;BME280;75525;50.718;10.600;2024-01-25T02:47:35;96602.19;;;4.13;81.11
85159;BME280;75525;50.718;10.600;2024-01-25T02:48:35;96575.19;;;4.01;80.51
85159;BME280;75525;50.718;10.600;2024-01-25T02:49:36;96605.72;;;4.13;80.81
85159;BME280;75525;50.718;10.600;2024-01-25T02:50:36;96593.50;;;4.04;80.33
85159;BME280;75525;50.718;10.600;2024-01-25T02:51:36;96587.16;;;4.05;80.84
85159;BME280;75525;50.718;10.600;2024-01-25T02:52:37;96576.19;;;4.00;80.64
85159;BME280;75525;50.718;10.600;2024-01-25T02:53:37;96595.78;;;4.07;81.38
85159;BME280;75525;50.718;10.600;2024-01-25T02:54:38;96584.22;;;4.00;81.59
85159;BME280;75525;50.718;10.600;2024-01-25T02:55:38;96600.72;;;4.04;81.15
85159;BME280;75525;50.718;10.600;2024-01-25T02:56:39;96588.38;;;4.03;81.37
85159;BME280;75525;50.718;10.600;2024-01-25T02:57:39;96589.19;;;4.03;81.42
85159;BME280;75525;50.718;10.600;2024-01-25T02:58:40;96585.25;;;3.99;81.84
85159;BME280;75525;50.718;10.600;2024-01-25T02:59:40;96589.81;;;4.05;81.68
85159;BME280;75525;50.718;10.600;2024-01-25T03:00:41;96571.03;;;3.85;81.59
85159;BME280;75525;50.718;10.600;2024-01-25T03:01:41;96594.53;;;4.03;81.61
85159;BME280;75525;50.718;10.600;2024-01-25T03:02:42;96567.72;;;3.90;81.48
85159;BME280;75525;50.718;10.600;2024-01-25T03:03:42;96572.69;;;3.93;81.04
85159;BME280;75525;50.718;10.600;2024-01-25T03:04:43;96588.16;;;4.04;81.03
85159;BME280;75525;50.718;10.600;2024-01-25T03:05:43;96575.38;;;4.00;81.20
85159;BME280;75525;50.718;10.600;2024-01-25T03:06:43;96575.78;;;4.03;81.27
85159;BME280;75525;50.718;10.600;2024-01-25T03:07:44;96585.47;;;4.04;81.22
85159;BME280;75525;50.718;10.600;2024-01-25T03:08:45;96577.66;;;4.09;81.20
85159;BME280;75525;50.718;10.600;2024-01-25T03:09:46;96566.09;;;4.02;81.00
85159;BME280;75525;50.718;10.600;2024-01-25T03:10:46;96564.47;;;4.08;80.81
85159;BME280;75525;50.718;10.600;2024-01-25T03:11:49;96568.16;;;4.00;80.88
85159;BME280;75525;50.718;10.600;2024-01-25T03:12:50;96568.38;;;3.99;81.34
85159;BME280;75525;50.718;10.600;2024-01-25T03:13:50;96571.88;;;3.99;80.94
85159;BME280;75525;50.718;10.600;2024-01-25T03:14:51;96577.44;;;4.04;81.20
85159;BME280;75525;50.718;10.600;2024-01-25T03:15:51;96571.66;;;4.01;80.77
85159;BME280;75525;50.718;10.600;2024-01-25T03:16:52;96564.88;;;3.98;80.87
85159;BME280;75525;50.718;10.600;2024-01-25T03:17:52;96560.53;;;3.97;80.58
85159;BME280;75525;50.718;10.600;2024-01-25T03:18:52;96570.22;;;3.98;80.74
85159;BME280;75525;50.718;10.600;2024-01-25T03:19:53;96565.25;;;3.95;81.16
85159;BME280;75525;50.718;10.600;2024-01-25T03:20:53;96578.88;;;4.00;81.24
85159;BME280;75525;50.718;10.600;2024-01-25T03:21:54;96562.59;;;3.95;80.87
85159;BME280;75525;50.718;10.600;2024-01-25T03:22:55;96572.28;;;4.03;80.72
85159;BME280;75525;50.718;10.600;2024-01-25T03:23:56;96579.09;;;4.05;80.44
85159;BME280;75525;50.718;10.600;2024-01-25T03:24:57;96561.97;;;4.00;80.71
85159;BME280;75525;50.718;10.600;2024-01-25T03:25:57;96565.28;;;4.08;80.48
85159;BME280;75525;50.718;10.600;2024-01-25T03:26:58;96562.00;;;4.06;81.14
85159;BME280;75525;50.718;10.600;2024-01-25T03:27:59;96569.41;;;4.11;80.77
85159;BME280;75525;50.718;10.600;2024-01-25T03:29:00;96567.34;;;4.13;80.33
85159;BME280;75525;50.718;10.600;2024-01-25T03:30:00;96545.91;;;4.06;80.54
85159;BME280;75525;50.718;10.600;2024-01-25T03:31:00;96529.84;;;4.06;80.79
85159;BME280;75525;50.718;10.600;2024-01-25T03:32:01;96533.56;;;4.05;80.56
85159;BME280;75525;50.718;10.600;2024-01-25T03:33:01;96547.78;;;4.06;80.48
85159;BME280;75525;50.718;10.600;2024-01-25T03:34:02;96540.56;;;4.06;80.73
85159;BME280;75525;50.718;10.600;2024-01-25T03:35:03;96547.16;;;4.10;80.21
85159;BME280;75525;50.718;10.600;2024-01-25T03:36:04;96575.81;;;4.16;80.20
85159;BME280;75525;50.718;10.600;2024-01-25T03:37:05;96564.09;;;4.17;80.18
85159;BME280;75525;50.718;10.600;2024-01-25T03:38:07;96568.59;;;4.17;80.01
85159;BME280;75525;50.718;10.600;2024-01-25T03:39:07;96547.75;;;3.99;80.05
85159;BME280;75525;50.718;10.600;2024-01-25T03:40:08;96574.81;;;4.17;80.82
85159;BME280;75525;50.718;10.600;2024-01-25T03:41:09;96593.75;;;4.22;80.56
85159;BME280;75525;50.718;10.600;2024-01-25T03:42:09;96585.53;;;4.17;80.74
85159;BME280;75525;50.718;10.600;2024-01-25T03:43:10;96594.97;;;4.20;80.63
85159;BME280;75525;50.718;10.600;2024-01-25T03:44:10;96600.56;;;4.18;80.74
85159;BME280;75525;50.718;10.600;2024-01-25T03:45:11;96616.88;;;4.30;80.20
85159;BME280;75525;50.718;10.600;2024-01-25T03:46:12;96625.09;;;4.29;80.33
85159;BME280;75525;50.718;10.600;2024-01-25T03:47:12;96621.38;;;4.23;81.17
85159;BME280;75525;50.718;10.600;2024-01-25T03:48:13;96623.44;;;4.28;80.36
85159;BME280;75525;50.718;10.600;2024-01-25T03:49:13;96645.53;;;4.30;80.21
85159;BME280;75525;50.718;10.600;2024-01-25T03:50:14;96659.53;;;4.32;80.87
85159;BME280;75525;50.718;10.600;2024-01-25T03:51:15;96673.56;;;4.34;81.20
85159;BME280;75525;50.718;10.600;2024-01-25T03:52:16;96663.84;;;4.19;80.68
85159;BME280;75525;50.718;10.600;2024-01-25T03:53:17;96661.19;;;4.26;80.74
85159;BME280;75525;50.718;10.600;2024-01-25T03:54:17;96675.41;;;4.33;80.50
85159;BME280;75525;50.718;10.600;2024-01-25T03:55:18;96673.78;;;4.39;80.48
85159;BME280;75525;50.718;10.600;2024-01-25T03:56:18;96662.84;;;4.34;80.88
85159;BME280;75525;50.718;10.600;2024-01-25T03:57:19;96666.34;;;4.41;80.75
85159;BME280;75525;50.718;10.600;2024-01-25T03:58:19;96664.72;;;4.40;80.47
85159;BME280;75525;50.718;10.600;2024-01-25T03:59:20;96669.03;;;4.41;80.24
85159;BME280;75525;50.718;10.600;2024-01-25T04:00:20;96660.56;;;4.31;81.05
85159;BME280;75525;50.718;10.600;2024-01-25T04:01:20;96678.13;;;4.40;80.79
85159;BME280;75525;50.718;10.600;2024-01-25T04:02:21;96669.84;;;4.41;80.91
85159;BME280;75525;50.718;10.600;2024-01-25T04:03:21;96665.75;;;4.39;80.48
85159;BME280;75525;50.718;10.600;2024-01-25T04:04:22;96674.22;;;4.42;81.28
85159;BME280;75525;50.718;10.600;2024-01-25T04:05:22;96667.00;;;4.43;80.21
85159;BME280;75525;50.718;10.600;2024-01-25T04:06:23;96661.63;;;4.43;80.58
85159;BME280;75525;50.718;10.600;2024-01-25T04:07:23;96670.28;;;4.45;80.56
85159;BME280;75525;50.718;10.600;2024-01-25T04:08:24;96651.50;;;4.32;80.83
85159;BME280;75525;50.718;10.600;2024-01-25T04:09:25;96665.97;;;4.44;80.69
85159;BME280;75525;50.718;10.600;2024-01-25T04:10:26;96678.75;;;4.49;80.35
85159;BME280;75525;50.718;10.600;2024-01-25T04:11:26;96660.81;;;4.42;81.26
85159;BME280;75525;50.718;10.600;2024-01-25T04:12:27;96684.94;;;4.49;80.77
85159;BME280;75525;50.718;10.600;2024-01-25T04:13:27;96649.03;;;4.37;80.63
85159;BME280;75525;50.718;10.600;2024-01-25T04:14:27;96662.06;;;4.46;80.58
85159;BME280;75525;50.718;10.600;2024-01-25T04:15:28;96668.84;;;4.49;80.94
85159;BME280;75525;50.718;10.600;2024-01-25T04:16:29;96652.13;;;4.40;81.05
85159;BME280;75525;50.718;10.600;2024-01-25T04:17:29;96655.63;;;4.41;81.32
85159;BME280;75525;50.718;10.600;2024-01-25T04:18:30;96675.25;;;4.48;81.79
85159;BME280;75525;50.718;10.600;2024-01-25T04:19:31;96681.00;;;4.45;81.00
85159;BME280;75525;50.718;10.600;2024-01-25T04:20:32;96689.47;;;4.49;80.91
85159;BME280;75525;50.718;10.600;2024-01-25T04:21:37;96696.69;;;4.48;81.01
85159;BME280;75525;50.718;10.600;2024-01-25T04:22:37;96696.09;;;4.46;81.75
85159;BME280;75525;50.718;10.600;2024-01-25T04:23:37;96688.03;;;4.46;81.12
85159;BME280;75525;50.718;10.600;2024-01-25T04:24:38;96696.88;;;4.40;81.46
85159;BME280;75525;50.718;10.600;2024-01-25T04:25:39;96695.66;;;4.42;81.07
85159;BME280;75525;50.718;10.600;2024-01-25T04:26:39;96686.16;;;4.40;81.31
85159;BME280;75525;50.718;10.600;2024-01-25T04:27:40;96711.75;;;4.49;81.31
85159;BME280;75525;50.718;10.600;2024-01-25T04:28:41;96701.63;;;4.38;81.26
85159;BME280;75525;50.718;10.600;2024-01-25T04:29:41;96724.53;;;4.47;80.99
85159;BME280;75525;50.718;10.600;2024-01-25T04:30:43;96712.16;;;4.46;80.82
85159;BME280;75525;50.718;10.600;2024-01-25T04:31:44;96714.22;;;4.44;80.83
85159;BME280;75525;50.718;10.600;2024-01-25T04:32:45;96720.41;;;4.44;81.03
85159;BME280;75525;50.718;10.600;2024-01-25T04:33:45;96732.78;;;4.52;80.78
85159;BME280;75525;50.718;10.600;2024-01-25T04:34:46;96725.75;;;4.44;81.08
85159;BME280;75525;50.718;10.600;2024-01-25T04:35:47;96727.22;;;4.47;80.97
85159;BME280;75525;50.718;10.600;2024-01-25T04:36:48;96731.16;;;4.51;80.88
85159;BME280;75525;50.718;10.600;2024-01-25T04:37:48;96731.16;;;4.51;81.42
85159;BME280;75525;50.718;10.600;2024-01-25T04:38:49;96705.75;;;4.40;81.39
85159;BME280;75525;50.718;10.600;2024-01-25T04:39:49;96729.06;;;4.46;81.19
85159;BME280;75525;50.718;10.600;2024-01-25T04:40:50;96724.50;;;4.40;81.84
85159;BME280;75525;50.718;10.600;2024-01-25T04:41:50;96722.91;;;4.46;81.89
85159;BME280;75525;50.718;10.600;2024-01-25T04:42:50;96719.16;;;4.40;81.00
85159;BME280;75525;50.718;10.600;2024-01-25T04:43:51;96729.91;;;4.47;81.17
85159;BME280;75525;50.718;10.600;2024-01-25T04:44:51;96717.94;;;4.43;81.46
85159;BME280;75525;50.718;10.600;2024-01-25T04:45:52;96732.38;;;4.42;81.42
85159;BME280;75525;50.718;10.600;2024-01-25T04:46:52;96723.06;;;4.38;81.29
85159;BME280;75525;50.718;10.600;2024-01-25T04:47:54;96714.41;;;4.36;81.04
85159;BME280;75525;50.718;10.600;2024-01-25T04:48:54;96717.94;;;4.43;81.79
85159;BME280;75525;50.718;10.600;2024-01-25T04:49:55;96720.78;;;4.35;81.71
85159;BME280;75525;50.718;10.600;2024-01-25T04:50:58;96725.16;;;4.42;81.59
85159;BME280;75525;50.718;10.600;2024-01-25T04:51:59;96724.94;;;4.44;81.65
85159;BME280;75525;50.718;10.600;2024-01-25T04:53:01;96723.47;;;4.41;81.16
85159;BME280;75525;50.718;10.600;2024-01-25T04:54:02;96722.03;;;4.39;80.73
85159;BME280;75525;50.718;10.600;2024-01-25T04:55:03;96729.91;;;4.47;80.57
85159;BME280;75525;50.718;10.600;2024-01-25T04:56:03;96711.31;;;4.39;81.47
85159;BME280;75525;50.718;10.600;2024-01-25T04:57:04;96713.34;;;4.37;81.67
85159;BME280;75525;50.718;10.600;2024-01-25T04:58:08;96704.72;;;4.35;81.32
85159;BME280;75525;50.718;10.600;2024-01-25T04:59:09;96723.28;;;4.43;81.24
85159;BME280;75525;50.718;10.600;2024-01-25T05:00:10;96729.03;;;4.40;81.41
85159;BME280;75525;50.718;10.600;2024-01-25T05:01:11;96728.63;;;4.36;81.67
85159;BME280;75525;50.718;10.600;2024-01-25T05:02:11;96730.09;;;4.39;82.07
85159;BME280;75525;50.718;10.600;2024-01-25T05:03:12;96720.78;;;4.35;81.45
85159;BME280;75525;50.718;10.600;2024-01-25T05:04:12;96712.53;;;4.30;81.72
85159;BME280;75525;50.718;10.600;2024-01-25T05:05:13;96722.81;;;4.26;80.72
85159;BME280;75525;50.718;10.600;2024-01-25T05:06:13;96715.59;;;4.27;80.94
85159;BME280;75525;50.718;10.600;2024-01-25T05:07:15;96734.38;;;4.33;80.67
85159;BME280;75525;50.718;10.600;2024-01-25T05:08:16;96743.88;;;4.36;80.94
85159;BME280;75525;50.718;10.600;2024-01-25T05:09:16;96724.09;;;4.37;80.49
85159;BME280;75525;50.718;10.600;2024-01-25T05:10:17;96726.94;;;4.29;80.93
85159;BME280;75525;50.718;10.600;2024-01-25T05:11:18;96730.25;;;4.31;81.49
85159;BME280;75525;50.718;10.600;2024-01-25T05:12:18;96716.00;;;4.24;80.45
85159;BME280;75525;50.718;10.600;2024-01-25T05:13:19;96721.56;;;4.22;80.46
85159;BME280;75525;50.718;10.600;2024-01-25T05:14:19;96740.16;;;4.30;80.33
85159;BME280;75525;50.718;10.600;2024-01-25T05:15:20;96754.59;;;4.36;80.43
85159;BME280;75525;50.718;10.600;2024-01-25T05:16:20;96737.91;;;4.34;81.28
85159;BME280;75525;50.718;10.600;2024-01-25T05:17:21;96722.78;;;4.19;81.44
85159;BME280;75525;50.718;10.600;2024-01-25T05:18:21;96746.34;;;4.31;80.85
85159;BME280;75525;50.718;10.600;2024-01-25T05:19:21;96734.16;;;4.21;80.42
85159;BME280;75525;50.718;10.600;2024-01-25T05:20:22;96744.69;;;4.30;80.25
85159;BME280;75525;50.718;10.600;2024-01-25T05:21:22;96746.34;;;4.31;80.09
85159;BME280;75525;50.718;10.600;2024-01-25T05:22:23;96757.69;;;4.33;80.17